Tisbury, Massachusetts
Current Conditions -  °F | °C
As of 10:53 PM on Saturday 24 Jan 2015 (Local Time) from KMVY Reporting Station
Clear Clear  
Wind Chill: 25°   Ceiling: Unl
Heat Index: 33°   Visibility: 10mi
Dew Point: 30°   Wind: 9mph
Humidity: 89%   Direction: 300°WNW
Pressure: 29.3"   Gusts: NA
Location:  41.4768°N, 70.6027°W
Report Text: KMVY 250353Z AUTO 30008KT 10SM CLR 01/M01 A2930 RMK AO2 SLP920 T00061011
Loading
Personal Weather Stations






























Interactive Weather Map New forecast layout! Learn more

10-Day Weather Forecast

Advertisements
Track Severe Weather on mobile